Zeran (malta) — 9HHJ5 — position and weather

sailwx.info

Track history (hours):
 
Tides and Currents Weather Stations Pressure Air Temp Water Temp Dewpoint Dewpoint Depression Visibility Wind Speed Wind Dir Waves Ship Positions

Zeran (malta)

Last reported at 2014-Oct-28 17:29 UTC. Time now 2014-Oct-31 10:03 UTC.
Position N 43°22' E 009°27'.

Length 148 m; beam 24 m.

Type: Ship (hazmat cat A). MMSI: 249846000.

Date/timePositionNaut miles runAvg speedWind from/ knotsBaromVisibWave heightAir tempDewpointWater temp
2014-Oct-28 17:29N 43°22' E 009°27'1111.6
2014-Oct-28 16:33N 43°32' E 009°21'1211.5
2014-Oct-28 15:33N 43°43' E 009°15'1111.3
2014-Oct-28 14:33N 43°53' E 009°09'1111.4
2014-Oct-28 13:33N 44°04' E 009°04'1111.4
2014-Oct-28 12:33N 44°15' E 008°58'1010.3
2014-Oct-28 11:33N 44°24' E 008°52'0 0.2
2014-Oct-28 10:22N 44°24' E 008°53'0 0.0
2014-Oct-28 07:25N 44°24' E 008°53'0 0.0
2014-Oct-28 04:04N 44°24' E 008°53'0 0.0
2014-Oct-28 03:28N 44°24' E 008°53'0 0.0
2014-Oct-28 02:31N 44°24' E 008°53'0 0.0
2014-Oct-28 01:28N 44°24' E 008°53'0 0.0
2014-Oct-28 00:28N 44°24' E 008°53'0 0.0
2014-Oct-27 23:22N 44°24' E 008°53'0 0.0
2014-Oct-27 19:25N 44°24' E 008°53'0 0.0
2014-Oct-27 18:28N 44°24' E 008°53'0 0.0
2014-Oct-27 15:19N 44°24' E 008°53'0 0.0
2014-Oct-27 11:28N 44°24' E 008°53'0 0.0
2014-Oct-27 07:25N 44°24' E 008°53'0 0.0
2014-Oct-27 03:22N 44°24' E 008°53'0 0.0
2014-Oct-27 02:28N 44°24' E 008°53'0 0.0
2014-Oct-27 01:28N 44°24' E 008°53'0 0.0
2014-Oct-26 19:28N 44°24' E 008°53'0 0.0
2014-Oct-26 16:04N 44°24' E 008°53'0 0.0
2014-Oct-26 15:28N 44°24' E 008°53'0 0.0
2014-Oct-26 11:31N 44°24' E 008°53'0 0.0
2014-Oct-26 07:13N 44°24' E 008°53'0 0.0
2014-Oct-26 04:07N 44°24' E 008°53'0 0.0
2014-Oct-26 03:22N 44°24' E 008°53'0 0.0
2014-Oct-26 02:31N 44°24' E 008°53'0 0.0
2014-Oct-26 01:25N 44°24' E 008°53'0 0.0
2014-Oct-25 23:25N 44°24' E 008°53'0 0.0
2014-Oct-25 19:31N 44°24' E 008°53'0 0.0
2014-Oct-25 15:28N 44°24' E 008°53'0 0.0
2014-Oct-25 11:31N 44°24' E 008°53'1 0.2
2014-Oct-25 08:31N 44°24' E 008°53'2 1.5
2014-Oct-25 07:29N 44°23' E 008°55'0 0.0
2014-Oct-25 05:32N 44°23' E 008°55'0 0.0
2014-Oct-25 04:17N 44°23' E 008°55'0 0.0
2014-Oct-25 03:32N 44°23' E 008°55'0 0.0
2014-Oct-25 02:32N 44°23' E 008°55'0 0.0
2014-Oct-25 01:20N 44°23' E 008°55'0 0.0
2014-Oct-25 00:26N 44°23' E 008°55'0 0.0
2014-Oct-24 23:29N 44°23' E 008°55'0 0.0
2014-Oct-24 22:14N 44°23' E 008°55'0 0.0
2014-Oct-24 21:14N 44°23' E 008°55'0 0.0
2014-Oct-24 20:08N 44°23' E 008°55'0 0.0
2014-Oct-24 19:17N 44°23' E 008°55'0 0.0
2014-Oct-24 17:23N 44°23' E 008°55'0 0.0
2014-Oct-24 16:20N 44°23' E 008°55'0 0.0
2014-Oct-24 15:26N 44°23' E 008°55'0 0.0
2014-Oct-24 14:32N 44°23' E 008°55'0 0.0
2014-Oct-24 13:29N 44°23' E 008°55'0 0.2
2014-Oct-24 12:32N 44°23' E 008°55'6 6.4
2014-Oct-24 11:33N 44°17' E 008°56'7 6.6
2014-Oct-24 10:33N 44°11' E 008°52'7 7.1
2014-Oct-24 09:33N 44°05' E 008°47'8 7.3
2014-Oct-24 08:30N 43°58' E 008°42'14 7.0
2014-Oct-24 06:33N 43°46' E 008°33'21 8.7
2014-Oct-24 04:12N 43°29' E 008°19'  
2014-Oct-21 17:32N 38°22' E 002°46'8111.5
2014-Oct-21 10:29N 37°24' E 001°35'1111.0
2014-Oct-21 09:29N 37°16' E 001°25'1311.5
2014-Oct-21 08:23N 37°06' E 001°14'1011.7
2014-Oct-21 07:32N 36°59' E 001°06'1212.0
2014-Oct-21 06:33N 36°51' E 000°56'2411.8
2014-Oct-21 04:30N 36°33' E 000°35'1112.0
2014-Oct-21 03:32N 36°25' E 000°25'66 2.1
2014-Oct-19 20:11N 37°14' E 001°21'8911.4
2014-Oct-19 12:26N 38°17' E 002°39'17111.4
2014-Oct-18 21:24N 40°21' E 005°12'2611.3
2014-Oct-18 19:08N 40°40' E 005°35'  
Track history (hours):
 
Tides and Currents Weather Stations Pressure Air Temp Water Temp Dewpoint Dewpoint Depression Visibility Wind Speed Wind Dir Waves Ship Positions

Zeran (malta)

Last reported at 2014-Oct-28 17:29 UTC. Time now 2014-Oct-31 10:03 UTC.
Position N 43°22' E 009°27'.

Length 148 m; beam 24 m.

Type: Ship (hazmat cat A). MMSI: 249846000.

Date/timePositionNaut miles runAvg speedWind from/ knotsBaromVisibWave heightAir tempDewpointWater temp
2014-Oct-28 17:29N 43°22' E 009°27'1111.6
2014-Oct-28 16:33N 43°32' E 009°21'1211.5
2014-Oct-28 15:33N 43°43' E 009°15'1111.3
2014-Oct-28 14:33N 43°53' E 009°09'1111.4
2014-Oct-28 13:33N 44°04' E 009°04'1111.4
2014-Oct-28 12:33N 44°15' E 008°58'1010.3
2014-Oct-28 11:33N 44°24' E 008°52'0 0.2
2014-Oct-28 10:22N 44°24' E 008°53'0 0.0
2014-Oct-28 07:25N 44°24' E 008°53'0 0.0
2014-Oct-28 04:04N 44°24' E 008°53'0 0.0
2014-Oct-28 03:28N 44°24' E 008°53'0 0.0
2014-Oct-28 02:31N 44°24' E 008°53'0 0.0
2014-Oct-28 01:28N 44°24' E 008°53'0 0.0
2014-Oct-28 00:28N 44°24' E 008°53'0 0.0
2014-Oct-27 23:22N 44°24' E 008°53'0 0.0
2014-Oct-27 19:25N 44°24' E 008°53'0 0.0
2014-Oct-27 18:28N 44°24' E 008°53'0 0.0
2014-Oct-27 15:19N 44°24' E 008°53'0 0.0
2014-Oct-27 11:28N 44°24' E 008°53'0 0.0
2014-Oct-27 07:25N 44°24' E 008°53'0 0.0
2014-Oct-27 03:22N 44°24' E 008°53'0 0.0
2014-Oct-27 02:28N 44°24' E 008°53'0 0.0
2014-Oct-27 01:28N 44°24' E 008°53'0 0.0
2014-Oct-26 19:28N 44°24' E 008°53'0 0.0
2014-Oct-26 16:04N 44°24' E 008°53'0 0.0
2014-Oct-26 15:28N 44°24' E 008°53'0 0.0
2014-Oct-26 11:31N 44°24' E 008°53'0 0.0
2014-Oct-26 07:13N 44°24' E 008°53'0 0.0
2014-Oct-26 04:07N 44°24' E 008°53'0 0.0
2014-Oct-26 03:22N 44°24' E 008°53'0 0.0
2014-Oct-26 02:31N 44°24' E 008°53'0 0.0
2014-Oct-26 01:25N 44°24' E 008°53'0 0.0
2014-Oct-25 23:25N 44°24' E 008°53'0 0.0
2014-Oct-25 19:31N 44°24' E 008°53'0 0.0
2014-Oct-25 15:28N 44°24' E 008°53'0 0.0
2014-Oct-25 11:31N 44°24' E 008°53'1 0.2
2014-Oct-25 08:31N 44°24' E 008°53'2 1.5
2014-Oct-25 07:29N 44°23' E 008°55'0 0.0
2014-Oct-25 05:32N 44°23' E 008°55'0 0.0
2014-Oct-25 04:17N 44°23' E 008°55'0 0.0
2014-Oct-25 03:32N 44°23' E 008°55'0 0.0
2014-Oct-25 02:32N 44°23' E 008°55'0 0.0
2014-Oct-25 01:20N 44°23' E 008°55'0 0.0
2014-Oct-25 00:26N 44°23' E 008°55'0 0.0
2014-Oct-24 23:29N 44°23' E 008°55'0 0.0
2014-Oct-24 22:14N 44°23' E 008°55'0 0.0
2014-Oct-24 21:14N 44°23' E 008°55'0 0.0
2014-Oct-24 20:08N 44°23' E 008°55'0 0.0
2014-Oct-24 19:17N 44°23' E 008°55'0 0.0
2014-Oct-24 17:23N 44°23' E 008°55'0 0.0
2014-Oct-24 16:20N 44°23' E 008°55'0 0.0
2014-Oct-24 15:26N 44°23' E 008°55'0 0.0
2014-Oct-24 14:32N 44°23' E 008°55'0 0.0
2014-Oct-24 13:29N 44°23' E 008°55'0 0.2
2014-Oct-24 12:32N 44°23' E 008°55'6 6.4
2014-Oct-24 11:33N 44°17' E 008°56'7 6.6
2014-Oct-24 10:33N 44°11' E 008°52'7 7.1
2014-Oct-24 09:33N 44°05' E 008°47'8 7.3
2014-Oct-24 08:30N 43°58' E 008°42'14 7.0
2014-Oct-24 06:33N 43°46' E 008°33'21 8.7
2014-Oct-24 04:12N 43°29' E 008°19'  
2014-Oct-21 17:32N 38°22' E 002°46'8111.5
2014-Oct-21 10:29N 37°24' E 001°35'1111.0
2014-Oct-21 09:29N 37°16' E 001°25'1311.5
2014-Oct-21 08:23N 37°06' E 001°14'1011.7
2014-Oct-21 07:32N 36°59' E 001°06'1212.0
2014-Oct-21 06:33N 36°51' E 000°56'2411.8
2014-Oct-21 04:30N 36°33' E 000°35'1112.0
2014-Oct-21 03:32N 36°25' E 000°25'66 2.1
2014-Oct-19 20:11N 37°14' E 001°21'8911.4
2014-Oct-19 12:26N 38°17' E 002°39'17111.4
2014-Oct-18 21:24N 40°21' E 005°12'2611.3
2014-Oct-18 19:08N 40°40' E 005°35'  

Dump ship's entire track history